sensor_id;sensor_type;location;lat;lon;timestamp;P1;durP1;ratioP1;P2;durP2;ratioP2
14098;SDS011;7126;48.458;7.930;2023-09-19T00:01:31;0.40;;;0.40;;
14098;SDS011;7126;48.458;7.930;2023-09-19T00:03:57;0.50;;;0.50;;
14098;SDS011;7126;48.458;7.930;2023-09-19T00:06:23;0.57;;;0.57;;
14098;SDS011;7126;48.458;7.930;2023-09-19T00:08:51;0.57;;;0.57;;
14098;SDS011;7126;48.458;7.930;2023-09-19T00:11:17;0.68;;;0.68;;
14098;SDS011;7126;48.458;7.930;2023-09-19T00:13:43;0.43;;;0.43;;
14098;SDS011;7126;48.458;7.930;2023-09-19T00:16:09;0.45;;;0.45;;
14098;SDS011;7126;48.458;7.930;2023-09-19T00:18:36;0.50;;;0.50;;
14098;SDS011;7126;48.458;7.930;2023-09-19T00:21:03;0.55;;;0.55;;
14098;SDS011;7126;48.458;7.930;2023-09-19T00:23:30;0.60;;;0.60;;
14098;SDS011;7126;48.458;7.930;2023-09-19T00:25:59;0.50;;;0.50;;
14098;SDS011;7126;48.458;7.930;2023-09-19T00:28:25;0.45;;;0.45;;
14098;SDS011;7126;48.458;7.930;2023-09-19T00:30:51;0.45;;;0.45;;
14098;SDS011;7126;48.458;7.930;2023-09-19T00:33:17;0.47;;;0.47;;
14098;SDS011;7126;48.458;7.930;2023-09-19T00:35:50;0.45;;;0.45;;
14098;SDS011;7126;48.458;7.930;2023-09-19T00:38:17;0.60;;;0.60;;
14098;SDS011;7126;48.458;7.930;2023-09-19T00:40:49;0.50;;;0.50;;
14098;SDS011;7126;48.458;7.930;2023-09-19T00:43:18;0.55;;;0.55;;
14098;SDS011;7126;48.458;7.930;2023-09-19T00:45:45;0.40;;;0.40;;
14098;SDS011;7126;48.458;7.930;2023-09-19T00:48:16;0.50;;;0.50;;
14098;SDS011;7126;48.458;7.930;2023-09-19T00:50:42;0.50;;;0.50;;
14098;SDS011;7126;48.458;7.930;2023-09-19T00:53:09;0.43;;;0.43;;
14098;SDS011;7126;48.458;7.930;2023-09-19T00:55:38;0.50;;;0.50;;
14098;SDS011;7126;48.458;7.930;2023-09-19T00:58:05;0.40;;;0.40;;
14098;SDS011;7126;48.458;7.930;2023-09-19T01:00:31;0.60;;;0.60;;
14098;SDS011;7126;48.458;7.930;2023-09-19T01:03:00;0.50;;;0.50;;
14098;SDS011;7126;48.458;7.930;2023-09-19T01:05:28;0.40;;;0.40;;
14098;SDS011;7126;48.458;7.930;2023-09-19T01:07:57;0.50;;;0.50;;
14098;SDS011;7126;48.458;7.930;2023-09-19T01:10:23;0.50;;;0.50;;
14098;SDS011;7126;48.458;7.930;2023-09-19T01:21:17;0.50;;;0.50;;
14098;SDS011;7126;48.458;7.930;2023-09-19T01:29:38;0.50;;;0.50;;
14098;SDS011;7126;48.458;7.930;2023-09-19T01:32:10;0.50;;;0.50;;
14098;SDS011;7126;48.458;7.930;2023-09-19T01:37:15;0.50;;;0.50;;
14098;SDS011;7126;48.458;7.930;2023-09-19T01:39:44;0.50;;;0.50;;
14098;SDS011;7126;48.458;7.930;2023-09-19T01:51:10;0.50;;;0.50;;
14098;SDS011;7126;48.458;7.930;2023-09-19T01:57:06;0.40;;;0.40;;
14098;SDS011;7126;48.458;7.930;2023-09-19T01:59:16;0.50;;;0.50;;
14098;SDS011;7126;48.458;7.930;2023-09-19T02:01:46;0.50;;;0.50;;
14098;SDS011;7126;48.458;7.930;2023-09-19T02:04:14;0.50;;;0.50;;
14098;SDS011;7126;48.458;7.930;2023-09-19T02:06:42;0.50;;;0.50;;
14098;SDS011;7126;48.458;7.930;2023-09-19T02:09:08;0.35;;;0.35;;
14098;SDS011;7126;48.458;7.930;2023-09-19T02:11:34;0.50;;;0.50;;
14098;SDS011;7126;48.458;7.930;2023-09-19T02:14:00;0.40;;;0.40;;
14098;SDS011;7126;48.458;7.930;2023-09-19T02:16:26;0.50;;;0.50;;
14098;SDS011;7126;48.458;7.930;2023-09-19T02:18:51;0.45;;;0.45;;
14098;SDS011;7126;48.458;7.930;2023-09-19T02:21:17;0.50;;;0.50;;
14098;SDS011;7126;48.458;7.930;2023-09-19T02:23:46;0.40;;;0.40;;
14098;SDS011;7126;48.458;7.930;2023-09-19T02:26:12;0.50;;;0.50;;
14098;SDS011;7126;48.458;7.930;2023-09-19T02:28:38;0.50;;;0.50;;
14098;SDS011;7126;48.458;7.930;2023-09-19T02:31:04;0.50;;;0.50;;
14098;SDS011;7126;48.458;7.930;2023-09-19T02:33:32;0.60;;;0.60;;
14098;SDS011;7126;48.458;7.930;2023-09-19T02:35:58;0.50;;;0.50;;
14098;SDS011;7126;48.458;7.930;2023-09-19T02:38:25;0.50;;;0.50;;
14098;SDS011;7126;48.458;7.930;2023-09-19T02:40:54;0.50;;;0.50;;
14098;SDS011;7126;48.458;7.930;2023-09-19T02:43:21;0.40;;;0.40;;
14098;SDS011;7126;48.458;7.930;2023-09-19T02:45:47;0.40;;;0.40;;
14098;SDS011;7126;48.458;7.930;2023-09-19T02:48:18;0.47;;;0.47;;
14098;SDS011;7126;48.458;7.930;2023-09-19T02:50:44;0.40;;;0.40;;
14098;SDS011;7126;48.458;7.930;2023-09-19T02:53:10;0.43;;;0.43;;
14098;SDS011;7126;48.458;7.930;2023-09-19T02:55:37;0.50;;;0.50;;
14098;SDS011;7126;48.458;7.930;2023-09-19T02:58:05;0.40;;;0.40;;
14098;SDS011;7126;48.458;7.930;2023-09-19T03:00:33;0.50;;;0.50;;
14098;SDS011;7126;48.458;7.930;2023-09-19T03:03:01;0.50;;;0.50;;
14098;SDS011;7126;48.458;7.930;2023-09-19T03:05:27;0.40;;;0.40;;
14098;SDS011;7126;48.458;7.930;2023-09-19T03:07:56;0.50;;;0.50;;
14098;SDS011;7126;48.458;7.930;2023-09-19T03:10:22;0.50;;;0.50;;
14098;SDS011;7126;48.458;7.930;2023-09-19T03:12:49;0.40;;;0.40;;
14098;SDS011;7126;48.458;7.930;2023-09-19T03:15:15;0.50;;;0.50;;
14098;SDS011;7126;48.458;7.930;2023-09-19T03:17:45;0.40;;;0.40;;
14098;SDS011;7126;48.458;7.930;2023-09-19T03:20:11;0.40;;;0.40;;
14098;SDS011;7126;48.458;7.930;2023-09-19T03:22:38;0.52;;;0.52;;
14098;SDS011;7126;48.458;7.930;2023-09-19T03:25:05;0.60;;;0.60;;
14098;SDS011;7126;48.458;7.930;2023-09-19T03:27:33;0.43;;;0.43;;
14098;SDS011;7126;48.458;7.930;2023-09-19T03:29:59;0.40;;;0.40;;
14098;SDS011;7126;48.458;7.930;2023-09-19T03:32:25;0.40;;;0.40;;
14098;SDS011;7126;48.458;7.930;2023-09-19T03:34:51;0.60;;;0.60;;
14098;SDS011;7126;48.458;7.930;2023-09-19T03:37:17;0.50;;;0.50;;
14098;SDS011;7126;48.458;7.930;2023-09-19T03:39:43;0.50;;;0.50;;
14098;SDS011;7126;48.458;7.930;2023-09-19T03:42:08;0.50;;;0.50;;
14098;SDS011;7126;48.458;7.930;2023-09-19T03:44:34;0.50;;;0.50;;
14098;SDS011;7126;48.458;7.930;2023-09-19T03:47:00;0.57;;;0.57;;
14098;SDS011;7126;48.458;7.930;2023-09-19T03:49:25;0.50;;;0.50;;
14098;SDS011;7126;48.458;7.930;2023-09-19T03:51:51;0.60;;;0.60;;
14098;SDS011;7126;48.458;7.930;2023-09-19T03:54:17;0.50;;;0.50;;
14098;SDS011;7126;48.458;7.930;2023-09-19T03:56:44;0.50;;;0.50;;
14098;SDS011;7126;48.458;7.930;2023-09-19T03:59:10;0.60;;;0.60;;
14098;SDS011;7126;48.458;7.930;2023-09-19T04:01:37;0.55;;;0.55;;
14098;SDS011;7126;48.458;7.930;2023-09-19T04:04:02;0.50;;;0.50;;
14098;SDS011;7126;48.458;7.930;2023-09-19T04:06:36;0.45;;;0.45;;
14098;SDS011;7126;48.458;7.930;2023-09-19T04:09:02;0.50;;;0.50;;
14098;SDS011;7126;48.458;7.930;2023-09-19T04:11:28;0.40;;;0.40;;
14098;SDS011;7126;48.458;7.930;2023-09-19T04:13:58;0.40;;;0.40;;
14098;SDS011;7126;48.458;7.930;2023-09-19T04:16:24;0.43;;;0.43;;
14098;SDS011;7126;48.458;7.930;2023-09-19T04:18:49;0.40;;;0.40;;
14098;SDS011;7126;48.458;7.930;2023-09-19T04:21:15;0.50;;;0.50;;
14098;SDS011;7126;48.458;7.930;2023-09-19T04:23:40;0.40;;;0.40;;
14098;SDS011;7126;48.458;7.930;2023-09-19T04:26:06;0.50;;;0.50;;
14098;SDS011;7126;48.458;7.930;2023-09-19T04:28:32;0.47;;;0.47;;
14098;SDS011;7126;48.458;7.930;2023-09-19T04:30:59;0.40;;;0.40;;
14098;SDS011;7126;48.458;7.930;2023-09-19T04:33:25;0.50;;;0.50;;
14098;SDS011;7126;48.458;7.930;2023-09-19T04:35:54;0.50;;;0.50;;
14098;SDS011;7126;48.458;7.930;2023-09-19T04:38:20;0.40;;;0.40;;
14098;SDS011;7126;48.458;7.930;2023-09-19T04:40:47;0.55;;;0.55;;
14098;SDS011;7126;48.458;7.930;2023-09-19T04:43:13;0.50;;;0.50;;
14098;SDS011;7126;48.458;7.930;2023-09-19T04:45:38;0.60;;;0.60;;
14098;SDS011;7126;48.458;7.930;2023-09-19T04:48:05;0.60;;;0.60;;
14098;SDS011;7126;48.458;7.930;2023-09-19T04:50:34;0.50;;;0.50;;
14098;SDS011;7126;48.458;7.930;2023-09-19T04:53:00;0.50;;;0.50;;
14098;SDS011;7126;48.458;7.930;2023-09-19T04:55:26;0.50;;;0.50;;
14098;SDS011;7126;48.458;7.930;2023-09-19T04:57:52;0.50;;;0.50;;
14098;SDS011;7126;48.458;7.930;2023-09-19T05:00:19;0.50;;;0.50;;
14098;SDS011;7126;48.458;7.930;2023-09-19T05:02:49;0.50;;;0.50;;
14098;SDS011;7126;48.458;7.930;2023-09-19T05:05:16;0.47;;;0.47;;
14098;SDS011;7126;48.458;7.930;2023-09-19T05:07:42;0.70;;;0.70;;
14098;SDS011;7126;48.458;7.930;2023-09-19T05:10:12;0.60;;;0.60;;
14098;SDS011;7126;48.458;7.930;2023-09-19T05:12:38;0.60;;;0.60;;
14098;SDS011;7126;48.458;7.930;2023-09-19T05:15:04;0.57;;;0.57;;
14098;SDS011;7126;48.458;7.930;2023-09-19T05:17:34;0.43;;;0.43;;
14098;SDS011;7126;48.458;7.930;2023-09-19T05:20:01;0.43;;;0.43;;
14098;SDS011;7126;48.458;7.930;2023-09-19T05:22:41;0.57;;;0.57;;
14098;SDS011;7126;48.458;7.930;2023-09-19T05:25:08;0.60;;;0.60;;
14098;SDS011;7126;48.458;7.930;2023-09-19T05:27:34;0.50;;;0.50;;
14098;SDS011;7126;48.458;7.930;2023-09-19T05:30:00;0.60;;;0.60;;
14098;SDS011;7126;48.458;7.930;2023-09-19T05:32:26;0.60;;;0.60;;
14098;SDS011;7126;48.458;7.930;2023-09-19T05:34:51;0.47;;;0.47;;
14098;SDS011;7126;48.458;7.930;2023-09-19T05:37:18;0.52;;;0.52;;
14098;SDS011;7126;48.458;7.930;2023-09-19T05:39:44;0.50;;;0.50;;
14098;SDS011;7126;48.458;7.930;2023-09-19T05:42:10;0.50;;;0.50;;
14098;SDS011;7126;48.458;7.930;2023-09-19T05:44:35;0.40;;;0.40;;
14098;SDS011;7126;48.458;7.930;2023-09-19T05:47:02;0.55;;;0.55;;
14098;SDS011;7126;48.458;7.930;2023-09-19T05:49:28;0.60;;;0.60;;
14098;SDS011;7126;48.458;7.930;2023-09-19T05:51:53;0.60;;;0.60;;
14098;SDS011;7126;48.458;7.930;2023-09-19T05:54:21;0.50;;;0.50;;
14098;SDS011;7126;48.458;7.930;2023-09-19T05:56:47;0.50;;;0.50;;
14098;SDS011;7126;48.458;7.930;2023-09-19T05:59:12;0.50;;;0.50;;
14098;SDS011;7126;48.458;7.930;2023-09-19T06:01:44;0.50;;;0.50;;
14098;SDS011;7126;48.458;7.930;2023-09-19T06:04:09;0.57;;;0.57;;
14098;SDS011;7126;48.458;7.930;2023-09-19T06:06:35;0.50;;;0.50;;
14098;SDS011;7126;48.458;7.930;2023-09-19T06:09:05;0.40;;;0.40;;
14098;SDS011;7126;48.458;7.930;2023-09-19T06:11:33;0.50;;;0.50;;
14098;SDS011;7126;48.458;7.930;2023-09-19T06:14:00;0.65;;;0.65;;
14098;SDS011;7126;48.458;7.930;2023-09-19T06:16:27;0.50;;;0.50;;
14098;SDS011;7126;48.458;7.930;2023-09-19T06:18:54;0.40;;;0.40;;
14098;SDS011;7126;48.458;7.930;2023-09-19T06:21:21;0.50;;;0.50;;
14098;SDS011;7126;48.458;7.930;2023-09-19T06:24:05;0.60;;;0.60;;
14098;SDS011;7126;48.458;7.930;2023-09-19T06:27:13;0.50;;;0.50;;
14098;SDS011;7126;48.458;7.930;2023-09-19T06:29:39;0.50;;;0.50;;
14098;SDS011;7126;48.458;7.930;2023-09-19T06:32:07;0.50;;;0.50;;
14098;SDS011;7126;48.458;7.930;2023-09-19T06:34:34;0.43;;;0.43;;
14098;SDS011;7126;48.458;7.930;2023-09-19T06:36:59;0.50;;;0.50;;
14098;SDS011;7126;48.458;7.930;2023-09-19T06:39:25;0.55;;;0.55;;
14098;SDS011;7126;48.458;7.930;2023-09-19T06:41:51;0.50;;;0.50;;
14098;SDS011;7126;48.458;7.930;2023-09-19T06:44:18;0.47;;;0.47;;
14098;SDS011;7126;48.458;7.930;2023-09-19T06:46:47;0.40;;;0.40;;
14098;SDS011;7126;48.458;7.930;2023-09-19T06:49:16;0.40;;;0.40;;
14098;SDS011;7126;48.458;7.930;2023-09-19T06:51:42;0.60;;;0.60;;
14098;SDS011;7126;48.458;7.930;2023-09-19T06:54:08;0.50;;;0.50;;
14098;SDS011;7126;48.458;7.930;2023-09-19T06:56:34;0.43;;;0.43;;
14098;SDS011;7126;48.458;7.930;2023-09-19T06:59:00;0.50;;;0.50;;
14098;SDS011;7126;48.458;7.930;2023-09-19T07:01:27;0.50;;;0.50;;
14098;SDS011;7126;48.458;7.930;2023-09-19T07:03:53;0.40;;;0.40;;
14098;SDS011;7126;48.458;7.930;2023-09-19T07:06:19;0.50;;;0.50;;
14098;SDS011;7126;48.458;7.930;2023-09-19T07:08:45;0.40;;;0.40;;
14098;SDS011;7126;48.458;7.930;2023-09-19T07:11:10;0.68;;;0.68;;
14098;SDS011;7126;48.458;7.930;2023-09-19T07:13:37;0.47;;;0.47;;
14098;SDS011;7126;48.458;7.930;2023-09-19T07:16:03;0.40;;;0.40;;
14098;SDS011;7126;48.458;7.930;2023-09-19T07:18:29;0.40;;;0.40;;
14098;SDS011;7126;48.458;7.930;2023-09-19T07:20:58;0.50;;;0.50;;
14098;SDS011;7126;48.458;7.930;2023-09-19T07:23:29;0.50;;;0.50;;
14098;SDS011;7126;48.458;7.930;2023-09-19T07:26:00;0.50;;;0.50;;
14098;SDS011;7126;48.458;7.930;2023-09-19T07:28:26;0.40;;;0.40;;
14098;SDS011;7126;48.458;7.930;2023-09-19T07:30:53;0.60;;;0.60;;
14098;SDS011;7126;48.458;7.930;2023-09-19T07:33:18;0.43;;;0.43;;
14098;SDS011;7126;48.458;7.930;2023-09-19T07:35:47;0.65;;;0.65;;
14098;SDS011;7126;48.458;7.930;2023-09-19T07:38:13;0.50;;;0.50;;
14098;SDS011;7126;48.458;7.930;2023-09-19T07:40:39;0.43;;;0.43;;
14098;SDS011;7126;48.458;7.930;2023-09-19T07:43:05;0.55;;;0.55;;
14098;SDS011;7126;48.458;7.930;2023-09-19T07:45:31;0.45;;;0.45;;
14098;SDS011;7126;48.458;7.930;2023-09-19T07:47:57;0.70;;;0.70;;
14098;SDS011;7126;48.458;7.930;2023-09-19T07:50:23;0.50;;;0.50;;
14098;SDS011;7126;48.458;7.930;2023-09-19T07:52:49;0.50;;;0.50;;
14098;SDS011;7126;48.458;7.930;2023-09-19T07:55:18;0.50;;;0.50;;
14098;SDS011;7126;48.458;7.930;2023-09-19T07:57:48;0.45;;;0.45;;
14098;SDS011;7126;48.458;7.930;2023-09-19T08:00:14;0.60;;;0.60;;
14098;SDS011;7126;48.458;7.930;2023-09-19T08:02:40;0.50;;;0.50;;
14098;SDS011;7126;48.458;7.930;2023-09-19T08:05:07;0.60;;;0.60;;
14098;SDS011;7126;48.458;7.930;2023-09-19T08:07:39;0.57;;;0.57;;
14098;SDS011;7126;48.458;7.930;2023-09-19T08:10:07;0.63;;;0.63;;
14098;SDS011;7126;48.458;7.930;2023-09-19T08:12:33;0.50;;;0.50;;
14098;SDS011;7126;48.458;7.930;2023-09-19T08:15:01;0.60;;;0.60;;
14098;SDS011;7126;48.458;7.930;2023-09-19T08:17:34;0.50;;;0.50;;
14098;SDS011;7126;48.458;7.930;2023-09-19T08:20:00;0.52;;;0.52;;
14098;SDS011;7126;48.458;7.930;2023-09-19T08:22:30;0.60;;;0.60;;
14098;SDS011;7126;48.458;7.930;2023-09-19T08:24:57;0.60;;;0.60;;
14098;SDS011;7126;48.458;7.930;2023-09-19T08:27:23;0.60;;;0.60;;
14098;SDS011;7126;48.458;7.930;2023-09-19T08:29:52;0.70;;;0.70;;
14098;SDS011;7126;48.458;7.930;2023-09-19T08:32:18;0.60;;;0.60;;
14098;SDS011;7126;48.458;7.930;2023-09-19T08:34:48;0.50;;;0.50;;
14098;SDS011;7126;48.458;7.930;2023-09-19T08:37:14;0.47;;;0.47;;
14098;SDS011;7126;48.458;7.930;2023-09-19T08:39:41;0.40;;;0.40;;
14098;SDS011;7126;48.458;7.930;2023-09-19T08:42:06;0.50;;;0.50;;
14098;SDS011;7126;48.458;7.930;2023-09-19T08:44:35;0.60;;;0.60;;
14098;SDS011;7126;48.458;7.930;2023-09-19T08:47:11;0.60;;;0.60;;
14098;SDS011;7126;48.458;7.930;2023-09-19T08:52:28;0.40;;;0.40;;
14098;SDS011;7126;48.458;7.930;2023-09-19T08:55:01;0.60;;;0.60;;
14098;SDS011;7126;48.458;7.930;2023-09-19T08:57:35;0.52;;;0.52;;
14098;SDS011;7126;48.458;7.930;2023-09-19T09:00:06;0.70;;;0.70;;
14098;SDS011;7126;48.458;7.930;2023-09-19T09:02:39;0.60;;;0.60;;
14098;SDS011;7126;48.458;7.930;2023-09-19T09:05:07;0.50;;;0.50;;
14098;SDS011;7126;48.458;7.930;2023-09-19T09:07:35;0.50;;;0.50;;
14098;SDS011;7126;48.458;7.930;2023-09-19T09:10:05;0.50;;;0.50;;
14098;SDS011;7126;48.458;7.930;2023-09-19T09:12:31;0.40;;;0.40;;
14098;SDS011;7126;48.458;7.930;2023-09-19T09:14:59;0.43;;;0.43;;
14098;SDS011;7126;48.458;7.930;2023-09-19T09:17:25;0.50;;;0.50;;
14098;SDS011;7126;48.458;7.930;2023-09-19T09:19:54;0.65;;;0.65;;
14098;SDS011;7126;48.458;7.930;2023-09-19T09:22:20;0.65;;;0.65;;
14098;SDS011;7126;48.458;7.930;2023-09-19T09:24:56;0.70;;;0.70;;
14098;SDS011;7126;48.458;7.930;2023-09-19T09:27:29;0.50;;;0.50;;
14098;SDS011;7126;48.458;7.930;2023-09-19T09:29:56;0.57;;;0.57;;
14098;SDS011;7126;48.458;7.930;2023-09-19T09:32:25;0.68;;;0.68;;
14098;SDS011;7126;48.458;7.930;2023-09-19T09:34:57;0.60;;;0.60;;
14098;SDS011;7126;48.458;7.930;2023-09-19T09:37:29;0.65;;;0.65;;
14098;SDS011;7126;48.458;7.930;2023-09-19T09:39:56;0.50;;;0.50;;
14098;SDS011;7126;48.458;7.930;2023-09-19T09:42:39;0.68;;;0.68;;
14098;SDS011;7126;48.458;7.930;2023-09-19T09:45:22;0.80;;;0.80;;
14098;SDS011;7126;48.458;7.930;2023-09-19T09:48:00;0.50;;;0.50;;
14098;SDS011;7126;48.458;7.930;2023-09-19T09:50:35;0.70;;;0.70;;
14098;SDS011;7126;48.458;7.930;2023-09-19T09:53:30;0.70;;;0.70;;
14098;SDS011;7126;48.458;7.930;2023-09-19T09:56:00;0.60;;;0.60;;
14098;SDS011;7126;48.458;7.930;2023-09-19T09:58:25;0.70;;;0.70;;
14098;SDS011;7126;48.458;7.930;2023-09-19T10:00:57;0.70;;;0.70;;
14098;SDS011;7126;48.458;7.930;2023-09-19T10:03:31;0.70;;;0.70;;
14098;SDS011;7126;48.458;7.930;2023-09-19T10:05:59;0.80;;;0.80;;
14098;SDS011;7126;48.458;7.930;2023-09-19T10:08:34;0.80;;;0.80;;
14098;SDS011;7126;48.458;7.930;2023-09-19T10:11:00;0.60;;;0.60;;
14098;SDS011;7126;48.458;7.930;2023-09-19T10:13:32;0.65;;;0.65;;
14098;SDS011;7126;48.458;7.930;2023-09-19T10:16:03;0.63;;;0.63;;
14098;SDS011;7126;48.458;7.930;2023-09-19T10:18:35;0.70;;;0.70;;
14098;SDS011;7126;48.458;7.930;2023-09-19T10:21:04;0.60;;;0.60;;
14098;SDS011;7126;48.458;7.930;2023-09-19T10:23:31;0.70;;;0.70;;
14098;SDS011;7126;48.458;7.930;2023-09-19T10:25:59;0.80;;;0.80;;
14098;SDS011;7126;48.458;7.930;2023-09-19T10:28:27;0.70;;;0.70;;
14098;SDS011;7126;48.458;7.930;2023-09-19T10:30:55;0.70;;;0.70;;
14098;SDS011;7126;48.458;7.930;2023-09-19T10:33:23;0.80;;;0.80;;
14098;SDS011;7126;48.458;7.930;2023-09-19T10:35:54;0.77;;;0.77;;
14098;SDS011;7126;48.458;7.930;2023-09-19T10:38:26;0.60;;;0.60;;
14098;SDS011;7126;48.458;7.930;2023-09-19T10:40:54;0.60;;;0.60;;
14098;SDS011;7126;48.458;7.930;2023-09-19T10:43:31;0.70;;;0.70;;
14098;SDS011;7126;48.458;7.930;2023-09-19T10:46:01;0.63;;;0.63;;
14098;SDS011;7126;48.458;7.930;2023-09-19T10:48:30;0.68;;;0.68;;
14098;SDS011;7126;48.458;7.930;2023-09-19T10:50:58;0.80;;;0.80;;
14098;SDS011;7126;48.458;7.930;2023-09-19T10:53:40;0.63;;;0.63;;
14098;SDS011;7126;48.458;7.930;2023-09-19T10:56:27;0.60;;;0.60;;
14098;SDS011;7126;48.458;7.930;2023-09-19T10:59:07;0.57;;;0.57;;
14098;SDS011;7126;48.458;7.930;2023-09-19T11:01:44;0.55;;;0.55;;
14098;SDS011;7126;48.458;7.930;2023-09-19T11:04:26;0.60;;;0.60;;
14098;SDS011;7126;48.458;7.930;2023-09-19T11:07:01;0.60;;;0.60;;
14098;SDS011;7126;48.458;7.930;2023-09-19T11:14:55;0.63;;;0.63;;
14098;SDS011;7126;48.458;7.930;2023-09-19T11:17:32;0.70;;;0.70;;
14098;SDS011;7126;48.458;7.930;2023-09-19T11:30:49;0.80;;;0.80;;
14098;SDS011;7126;48.458;7.930;2023-09-19T11:36:00;0.82;;;0.82;;
14098;SDS011;7126;48.458;7.930;2023-09-19T11:46:17;0.80;;;0.80;;
14098;SDS011;7126;48.458;7.930;2023-09-19T11:48:47;0.90;;;0.90;;
14098;SDS011;7126;48.458;7.930;2023-09-19T11:51:15;0.80;;;0.80;;
14098;SDS011;7126;48.458;7.930;2023-09-19T11:53:53;0.73;;;0.73;;
14098;SDS011;7126;48.458;7.930;2023-09-19T11:56:25;0.50;;;0.50;;
14098;SDS011;7126;48.458;7.930;2023-09-19T11:58:57;0.60;;;0.60;;
14098;SDS011;7126;48.458;7.930;2023-09-19T12:01:33;0.70;;;0.70;;
14098;SDS011;7126;48.458;7.930;2023-09-19T12:04:00;0.70;;;0.70;;
14098;SDS011;7126;48.458;7.930;2023-09-19T12:06:29;0.80;;;0.80;;
14098;SDS011;7126;48.458;7.930;2023-09-19T12:08:57;0.80;;;0.80;;
14098;SDS011;7126;48.458;7.930;2023-09-19T12:11:27;0.63;;;0.63;;
14098;SDS011;7126;48.458;7.930;2023-09-19T12:13:58;0.60;;;0.60;;
14098;SDS011;7126;48.458;7.930;2023-09-19T12:16:25;0.70;;;0.70;;
14098;SDS011;7126;48.458;7.930;2023-09-19T12:18:55;0.60;;;0.60;;
14098;SDS011;7126;48.458;7.930;2023-09-19T12:26:39;0.68;;;0.68;;
14098;SDS011;7126;48.458;7.930;2023-09-19T12:29:17;0.70;;;0.70;;
14098;SDS011;7126;48.458;7.930;2023-09-19T12:32:02;0.80;;;0.80;;
14098;SDS011;7126;48.458;7.930;2023-09-19T12:34:29;0.70;;;0.70;;
14098;SDS011;7126;48.458;7.930;2023-09-19T12:39:44;0.70;;;0.70;;
14098;SDS011;7126;48.458;7.930;2023-09-19T12:42:21;0.95;;;0.95;;
14098;SDS011;7126;48.458;7.930;2023-09-19T12:44:50;1.08;;;1.08;;
14098;SDS011;7126;48.458;7.930;2023-09-19T12:47:21;0.73;;;0.73;;
14098;SDS011;7126;48.458;7.930;2023-09-19T12:52:46;0.80;;;0.80;;
14098;SDS011;7126;48.458;7.930;2023-09-19T12:55:20;0.80;;;0.80;;
14098;SDS011;7126;48.458;7.930;2023-09-19T12:58:01;0.82;;;0.82;;
14098;SDS011;7126;48.458;7.930;2023-09-19T13:00:40;0.82;;;0.82;;
14098;SDS011;7126;48.458;7.930;2023-09-19T13:03:15;0.90;;;0.90;;
14098;SDS011;7126;48.458;7.930;2023-09-19T13:06:02;0.60;;;0.60;;
14098;SDS011;7126;48.458;7.930;2023-09-19T13:08:32;0.70;;;0.70;;
14098;SDS011;7126;48.458;7.930;2023-09-19T13:13:31;0.70;;;0.70;;
14098;SDS011;7126;48.458;7.930;2023-09-19T13:15:58;0.63;;;0.63;;
14098;SDS011;7126;48.458;7.930;2023-09-19T13:18:26;0.70;;;0.70;;
14098;SDS011;7126;48.458;7.930;2023-09-19T13:21:05;0.82;;;0.82;;
14098;SDS011;7126;48.458;7.930;2023-09-19T13:23:37;0.80;;;0.80;;
14098;SDS011;7126;48.458;7.930;2023-09-19T13:26:03;0.82;;;0.82;;
14098;SDS011;7126;48.458;7.930;2023-09-19T13:28:33;0.90;;;0.90;;
14098;SDS011;7126;48.458;7.930;2023-09-19T13:30:59;0.80;;;0.80;;
14098;SDS011;7126;48.458;7.930;2023-09-19T13:33:25;0.77;;;0.77;;
14098;SDS011;7126;48.458;7.930;2023-09-19T13:35:51;1.00;;;1.00;;
14098;SDS011;7126;48.458;7.930;2023-09-19T13:38:17;0.88;;;0.88;;
14098;SDS011;7126;48.458;7.930;2023-09-19T13:40:47;0.60;;;0.60;;
14098;SDS011;7126;48.458;7.930;2023-09-19T13:43:14;0.70;;;0.70;;
14098;SDS011;7126;48.458;7.930;2023-09-19T13:45:41;0.73;;;0.73;;
14098;SDS011;7126;48.458;7.930;2023-09-19T13:48:07;0.60;;;0.60;;
14098;SDS011;7126;48.458;7.930;2023-09-19T13:50:37;0.80;;;0.80;;
14098;SDS011;7126;48.458;7.930;2023-09-19T13:53:07;0.75;;;0.75;;
14098;SDS011;7126;48.458;7.930;2023-09-19T13:55:34;0.68;;;0.68;;
14098;SDS011;7126;48.458;7.930;2023-09-19T13:58:01;0.70;;;0.70;;
14098;SDS011;7126;48.458;7.930;2023-09-19T14:00:26;0.70;;;0.70;;
14098;SDS011;7126;48.458;7.930;2023-09-19T14:02:52;1.10;;;1.10;;
14098;SDS011;7126;48.458;7.930;2023-09-19T14:05:18;1.27;;;1.27;;
14098;SDS011;7126;48.458;7.930;2023-09-19T14:07:45;1.23;;;1.23;;
14098;SDS011;7126;48.458;7.930;2023-09-19T14:10:12;0.95;;;0.95;;
14098;SDS011;7126;48.458;7.930;2023-09-19T14:12:38;0.75;;;0.75;;
14098;SDS011;7126;48.458;7.930;2023-09-19T14:15:06;0.63;;;0.63;;
14098;SDS011;7126;48.458;7.930;2023-09-19T14:17:35;0.70;;;0.70;;
14098;SDS011;7126;48.458;7.930;2023-09-19T14:20:00;0.80;;;0.80;;
14098;SDS011;7126;48.458;7.930;2023-09-19T14:22:26;0.77;;;0.77;;
14098;SDS011;7126;48.458;7.930;2023-09-19T14:24:52;1.00;;;1.00;;
14098;SDS011;7126;48.458;7.930;2023-09-19T14:27:17;1.02;;;1.02;;
14098;SDS011;7126;48.458;7.930;2023-09-19T14:29:43;1.20;;;1.20;;
14098;SDS011;7126;48.458;7.930;2023-09-19T14:32:09;0.90;;;0.90;;
14098;SDS011;7126;48.458;7.930;2023-09-19T14:34:35;1.00;;;1.00;;
14098;SDS011;7126;48.458;7.930;2023-09-19T14:37:06;1.13;;;1.13;;
14098;SDS011;7126;48.458;7.930;2023-09-19T14:39:32;1.15;;;1.15;;
14098;SDS011;7126;48.458;7.930;2023-09-19T14:41:58;1.50;;;1.50;;
14098;SDS011;7126;48.458;7.930;2023-09-19T14:44:23;1.33;;;1.33;;
14098;SDS011;7126;48.458;7.930;2023-09-19T14:46:49;1.00;;;1.00;;
14098;SDS011;7126;48.458;7.930;2023-09-19T14:49:15;1.00;;;1.00;;
14098;SDS011;7126;48.458;7.930;2023-09-19T14:51:41;1.33;;;1.33;;
14098;SDS011;7126;48.458;7.930;2023-09-19T14:54:09;0.95;;;0.95;;
14098;SDS011;7126;48.458;7.930;2023-09-19T14:56:35;1.00;;;1.00;;
14098;SDS011;7126;48.458;7.930;2023-09-19T14:59:00;1.02;;;1.02;;
14098;SDS011;7126;48.458;7.930;2023-09-19T15:01:27;1.00;;;1.00;;
14098;SDS011;7126;48.458;7.930;2023-09-19T15:03:53;0.90;;;0.90;;
14098;SDS011;7126;48.458;7.930;2023-09-19T15:06:20;0.95;;;0.95;;
14098;SDS011;7126;48.458;7.930;2023-09-19T15:08:46;0.90;;;0.90;;
14098;SDS011;7126;48.458;7.930;2023-09-19T15:11:13;1.40;;;1.40;;
14098;SDS011;7126;48.458;7.930;2023-09-19T15:13:41;1.10;;;1.10;;
14098;SDS011;7126;48.458;7.930;2023-09-19T15:16:08;1.13;;;1.13;;
14098;SDS011;7126;48.458;7.930;2023-09-19T15:18:35;0.82;;;0.82;;
14098;SDS011;7126;48.458;7.930;2023-09-19T15:21:14;0.80;;;0.80;;
14098;SDS011;7126;48.458;7.930;2023-09-19T15:23:41;0.80;;;0.80;;
14098;SDS011;7126;48.458;7.930;2023-09-19T15:26:09;0.70;;;0.70;;
14098;SDS011;7126;48.458;7.930;2023-09-19T15:28:36;0.90;;;0.90;;
14098;SDS011;7126;48.458;7.930;2023-09-19T15:31:03;1.13;;;1.13;;
14098;SDS011;7126;48.458;7.930;2023-09-19T15:33:31;1.00;;;1.00;;
14098;SDS011;7126;48.458;7.930;2023-09-19T15:38:26;0.70;;;0.70;;
14098;SDS011;7126;48.458;7.930;2023-09-19T15:40:53;0.70;;;0.70;;
14098;SDS011;7126;48.458;7.930;2023-09-19T15:43:19;0.77;;;0.77;;
14098;SDS011;7126;48.458;7.930;2023-09-19T15:45:46;0.80;;;0.80;;
14098;SDS011;7126;48.458;7.930;2023-09-19T15:48:13;0.50;;;0.50;;
14098;SDS011;7126;48.458;7.930;2023-09-19T15:50:38;0.70;;;0.70;;
14098;SDS011;7126;48.458;7.930;2023-09-19T15:53:07;0.70;;;0.70;;
14098;SDS011;7126;48.458;7.930;2023-09-19T15:55:40;0.80;;;0.80;;
14098;SDS011;7126;48.458;7.930;2023-09-19T15:58:07;0.80;;;0.80;;
14098;SDS011;7126;48.458;7.930;2023-09-19T16:00:33;0.75;;;0.75;;
14098;SDS011;7126;48.458;7.930;2023-09-19T16:03:02;0.70;;;0.70;;
14098;SDS011;7126;48.458;7.930;2023-09-19T16:05:28;0.52;;;0.52;;
14098;SDS011;7126;48.458;7.930;2023-09-19T16:08:05;0.85;;;0.85;;
14098;SDS011;7126;48.458;7.930;2023-09-19T16:10:35;1.00;;;1.00;;
14098;SDS011;7126;48.458;7.930;2023-09-19T16:13:03;0.80;;;0.80;;
14098;SDS011;7126;48.458;7.930;2023-09-19T16:15:29;0.73;;;0.73;;
14098;SDS011;7126;48.458;7.930;2023-09-19T16:17:55;0.70;;;0.70;;
14098;SDS011;7126;48.458;7.930;2023-09-19T16:20:20;0.70;;;0.70;;
14098;SDS011;7126;48.458;7.930;2023-09-19T16:22:48;0.70;;;0.70;;